sensor_id;sensor_type;location;lat;lon;timestamp;pressure;altitude;pressure_sealevel;temperature;humidity
48035;BME280;33812;46.480;6.834;2024-03-06T00:00:35;93672.47;;;23.19;35.22
48035;BME280;33812;46.480;6.834;2024-03-06T00:04:37;93663.41;;;23.18;34.87
48035;BME280;33812;46.480;6.834;2024-03-06T00:08:39;93667.41;;;23.17;34.99
48035;BME280;33812;46.480;6.834;2024-03-06T00:12:40;93670.16;;;23.17;34.99
48035;BME280;33812;46.480;6.834;2024-03-06T00:16:43;93671.41;;;23.16;34.76
48035;BME280;33812;46.480;6.834;2024-03-06T00:20:45;93679.72;;;23.16;35.05
48035;BME280;33812;46.480;6.834;2024-03-06T00:24:47;93676.03;;;23.19;34.39
48035;BME280;33812;46.480;6.834;2024-03-06T00:28:49;93679.59;;;23.20;34.52
48035;BME280;33812;46.480;6.834;2024-03-06T00:32:52;93675.72;;;23.17;34.84
48035;BME280;33812;46.480;6.834;2024-03-06T00:36:54;93679.72;;;23.16;34.67
48035;BME280;33812;46.480;6.834;2024-03-06T00:40:56;93682.50;;;23.16;34.70
48035;BME280;33812;46.480;6.834;2024-03-06T00:44:58;93682.16;;;23.14;34.68
48035;BME280;33812;46.480;6.834;2024-03-06T00:49:01;93682.16;;;23.14;34.45
48035;BME280;33812;46.480;6.834;2024-03-06T00:53:03;93691.72;;;23.13;34.35
48035;BME280;33812;46.480;6.834;2024-03-06T00:57:05;93687.72;;;23.14;34.39
48035;BME280;33812;46.480;6.834;2024-03-06T01:01:07;93692.81;;;23.16;34.48
48035;BME280;33812;46.480;6.834;2024-03-06T01:05:10;93686.94;;;23.14;34.29
48035;BME280;33812;46.480;6.834;2024-03-06T01:09:12;93690.47;;;23.14;34.56
48035;BME280;33812;46.480;6.834;2024-03-06T01:13:14;93690.94;;;23.13;34.28
48035;BME280;33812;46.480;6.834;2024-03-06T01:17:16;93688.31;;;23.09;34.44
48035;BME280;33812;46.480;6.834;2024-03-06T01:21:20;93693.50;;;23.07;34.60
48035;BME280;33812;46.480;6.834;2024-03-06T01:25:22;93687.19;;;23.06;34.21
48035;BME280;33812;46.480;6.834;2024-03-06T01:29:24;93693.50;;;23.07;34.21
48035;BME280;33812;46.480;6.834;2024-03-06T01:33:26;93698.72;;;23.05;34.26
48035;BME280;33812;46.480;6.834;2024-03-06T01:37:29;93695.97;;;23.05;34.39
48035;BME280;33812;46.480;6.834;2024-03-06T01:41:31;93689.66;;;23.04;34.37
48035;BME280;33812;46.480;6.834;2024-03-06T01:45:32;93701.19;;;23.03;34.25
48035;BME280;33812;46.480;6.834;2024-03-06T01:49:35;93704.41;;;23.01;34.25
48035;BME280;33812;46.480;6.834;2024-03-06T01:53:38;93703.94;;;23.03;34.32
48035;BME280;33812;46.480;6.834;2024-03-06T01:57:40;93698.13;;;23.01;34.20
48035;BME280;33812;46.480;6.834;2024-03-06T02:01:43;93690.56;;;23.01;34.24
48035;BME280;33812;46.480;6.834;2024-03-06T02:05:46;93695.34;;;23.01;34.10
48035;BME280;33812;46.480;6.834;2024-03-06T02:09:50;93705.19;;;23.02;34.06
48035;BME280;33812;46.480;6.834;2024-03-06T02:13:52;93692.88;;;23.03;33.89
48035;BME280;33812;46.480;6.834;2024-03-06T02:17:54;93697.34;;;23.00;33.93
48035;BME280;33812;46.480;6.834;2024-03-06T02:21:58;93700.88;;;23.01;33.98
48035;BME280;33812;46.480;6.834;2024-03-06T02:26:00;93703.31;;;22.99;34.11
48035;BME280;33812;46.480;6.834;2024-03-06T02:30:03;93705.66;;;23.00;34.06
48035;BME280;33812;46.480;6.834;2024-03-06T02:34:05;93703.31;;;22.99;33.88
48035;BME280;33812;46.480;6.834;2024-03-06T02:38:08;93705.78;;;22.97;34.00
48035;BME280;33812;46.480;6.834;2024-03-06T02:42:10;93707.31;;;22.98;33.85
48035;BME280;33812;46.480;6.834;2024-03-06T02:46:11;93701.75;;;22.98;34.08
48035;BME280;33812;46.480;6.834;2024-03-06T02:50:13;93705.78;;;22.97;33.79
48035;BME280;33812;46.480;6.834;2024-03-06T02:54:17;93707.31;;;22.98;33.76
48035;BME280;33812;46.480;6.834;2024-03-06T02:58:19;93708.53;;;22.97;33.91
48035;BME280;33812;46.480;6.834;2024-03-06T03:02:21;93715.31;;;22.96;33.99
48035;BME280;33812;46.480;6.834;2024-03-06T03:06:24;93712.84;;;22.98;33.93
48035;BME280;33812;46.480;6.834;2024-03-06T03:10:27;93708.53;;;22.97;33.69
48035;BME280;33812;46.480;6.834;2024-03-06T03:14:28;93719.97;;;22.99;33.83
48035;BME280;33812;46.480;6.834;2024-03-06T03:18:30;93724.72;;;22.98;33.44
48035;BME280;33812;46.480;6.834;2024-03-06T03:22:32;93733.50;;;22.97;33.83
48035;BME280;33812;46.480;6.834;2024-03-06T03:26:35;93727.94;;;22.97;33.73
48035;BME280;33812;46.480;6.834;2024-03-06T03:30:37;93728.72;;;22.97;33.85
48035;BME280;33812;46.480;6.834;2024-03-06T03:34:39;93733.50;;;22.97;33.62
48035;BME280;33812;46.480;6.834;2024-03-06T03:38:41;93729.94;;;22.96;33.63
48035;BME280;33812;46.480;6.834;2024-03-06T03:42:45;93733.50;;;22.97;33.73
48035;BME280;33812;46.480;6.834;2024-03-06T03:46:46;93735.47;;;22.96;33.65
48035;BME280;33812;46.480;6.834;2024-03-06T03:50:48;93735.94;;;22.94;33.87
48035;BME280;33812;46.480;6.834;2024-03-06T03:54:50;93739.94;;;22.93;33.71
48035;BME280;33812;46.480;6.834;2024-03-06T03:58:53;93735.94;;;22.94;33.63
48035;BME280;33812;46.480;6.834;2024-03-06T04:02:55;93734.84;;;22.92;33.76
48035;BME280;33812;46.480;6.834;2024-03-06T04:06:56;93741.16;;;22.92;33.73
48035;BME280;33812;46.480;6.834;2024-03-06T04:11:00;93741.28;;;22.89;33.65
48035;BME280;33812;46.480;6.834;2024-03-06T04:15:04;93744.81;;;22.89;33.55
48035;BME280;33812;46.480;6.834;2024-03-06T04:19:06;93739.72;;;22.88;33.56
48035;BME280;33812;46.480;6.834;2024-03-06T04:23:08;93741.28;;;22.89;33.89
48035;BME280;33812;46.480;6.834;2024-03-06T04:27:09;93763.47;;;22.89;33.66
48035;BME280;33812;46.480;6.834;2024-03-06T04:31:13;93769.44;;;22.87;33.70
48035;BME280;33812;46.480;6.834;2024-03-06T04:35:15;93761.13;;;22.87;33.41
48035;BME280;33812;46.480;6.834;2024-03-06T04:39:16;93773.31;;;22.90;33.62
48035;BME280;33812;46.480;6.834;2024-03-06T04:43:18;93774.97;;;22.87;33.49
48035;BME280;33812;46.480;6.834;2024-03-06T04:47:23;93776.22;;;22.86;33.56
48035;BME280;33812;46.480;6.834;2024-03-06T04:51:25;93771.44;;;22.87;33.61
48035;BME280;33812;46.480;6.834;2024-03-06T04:55:27;93784.06;;;22.88;33.40
48035;BME280;33812;46.480;6.834;2024-03-06T04:59:30;93780.66;;;22.84;33.64
48035;BME280;33812;46.480;6.834;2024-03-06T05:03:33;93785.31;;;22.87;33.47
48035;BME280;33812;46.480;6.834;2024-03-06T05:07:35;93784.84;;;22.88;33.39
48035;BME280;33812;46.480;6.834;2024-03-06T05:11:37;93798.38;;;22.86;33.61
48035;BME280;33812;46.480;6.834;2024-03-06T05:15:39;93794.06;;;22.85;33.45
48035;BME280;33812;46.480;6.834;2024-03-06T05:19:43;93803.13;;;22.86;33.41
48035;BME280;33812;46.480;6.834;2024-03-06T05:23:45;93804.69;;;22.87;33.46
48035;BME280;33812;46.480;6.834;2024-03-06T05:27:46;93810.56;;;22.89;33.51
48035;BME280;33812;46.480;6.834;2024-03-06T05:31:48;93817.97;;;22.92;33.46
48035;BME280;33812;46.480;6.834;2024-03-06T05:35:51;93811.09;;;22.97;33.30
48035;BME280;33812;46.480;6.834;2024-03-06T05:39:53;93814.19;;;22.99;33.28
48035;BME280;33812;46.480;6.834;2024-03-06T05:43:55;93815.72;;;23.00;32.99
48035;BME280;33812;46.480;6.834;2024-03-06T05:47:57;93815.81;;;23.09;33.04
48035;BME280;33812;46.480;6.834;2024-03-06T05:52:00;93815.69;;;23.13;32.90
48035;BME280;33812;46.480;6.834;2024-03-06T05:56:04;93823.56;;;23.14;33.05
48035;BME280;33812;46.480;6.834;2024-03-06T06:00:08;93818.59;;;23.09;32.87
48035;BME280;33812;46.480;6.834;2024-03-06T06:04:11;93824.00;;;23.13;33.26
48035;BME280;33812;46.480;6.834;2024-03-06T06:08:15;93831.22;;;23.10;33.09
48035;BME280;33812;46.480;6.834;2024-03-06T06:12:17;93836.44;;;23.08;32.78
48035;BME280;33812;46.480;6.834;2024-03-06T06:16:19;93837.31;;;23.05;32.31
48035;BME280;33812;46.480;6.834;2024-03-06T06:20:21;93845.63;;;22.43;32.30
48035;BME280;33812;46.480;6.834;2024-03-06T06:24:24;93841.06;;;22.89;31.79
48035;BME280;33812;46.480;6.834;2024-03-06T06:28:26;93850.78;;;22.93;32.17
48035;BME280;33812;46.480;6.834;2024-03-06T06:32:31;93850.13;;;22.89;32.23
48035;BME280;33812;46.480;6.834;2024-03-06T06:36:32;93845.38;;;22.90;31.97
48035;BME280;33812;46.480;6.834;2024-03-06T06:40:36;93859.69;;;22.88;31.91
48035;BME280;33812;46.480;6.834;2024-03-06T06:44:37;93865.84;;;22.92;31.78
48035;BME280;33812;46.480;6.834;2024-03-06T06:48:39;93871.72;;;22.94;32.03
48035;BME280;33812;46.480;6.834;2024-03-06T06:52:41;93867.28;;;22.97;31.80
48035;BME280;33812;46.480;6.834;2024-03-06T06:56:44;93872.06;;;22.97;31.81
48035;BME280;33812;46.480;6.834;2024-03-06T07:00:47;93876.59;;;23.03;31.87
48035;BME280;33812;46.480;6.834;2024-03-06T07:04:49;93879.56;;;23.09;32.09
48035;BME280;33812;46.480;6.834;2024-03-06T07:08:50;93880.22;;;23.13;31.87
48035;BME280;33812;46.480;6.834;2024-03-06T07:12:54;93890.09;;;23.14;31.44
48035;BME280;33812;46.480;6.834;2024-03-06T07:16:56;93884.88;;;23.16;31.57
48035;BME280;33812;46.480;6.834;2024-03-06T07:20:58;93888.72;;;23.19;31.73
48035;BME280;33812;46.480;6.834;2024-03-06T07:24:59;93892.63;;;23.22;31.74
48035;BME280;33812;46.480;6.834;2024-03-06T07:29:03;93890.28;;;23.20;32.11
48035;BME280;33812;46.480;6.834;2024-03-06T07:33:05;93887.41;;;23.24;31.71
48035;BME280;33812;46.480;6.834;2024-03-06T07:37:07;93886.03;;;23.28;31.23
48035;BME280;33812;46.480;6.834;2024-03-06T07:41:09;93883.94;;;23.33;31.46
48035;BME280;33812;46.480;6.834;2024-03-06T07:45:13;93878.56;;;23.38;31.53
48035;BME280;33812;46.480;6.834;2024-03-06T07:49:14;93897.09;;;23.41;30.95
48035;BME280;33812;46.480;6.834;2024-03-06T07:53:16;93891.56;;;23.41;30.84
48035;BME280;33812;46.480;6.834;2024-03-06T07:57:18;93894.66;;;23.43;31.17
48035;BME280;33812;46.480;6.834;2024-03-06T08:01:23;93913.94;;;23.47;30.81
48035;BME280;33812;46.480;6.834;2024-03-06T08:05:26;93917.84;;;23.50;30.87
48035;BME280;33812;46.480;6.834;2024-03-06T08:09:27;93918.13;;;23.52;30.55
48035;BME280;33812;46.480;6.834;2024-03-06T08:13:29;93915.34;;;23.52;30.46
48035;BME280;33812;46.480;6.834;2024-03-06T08:17:32;93921.69;;;23.52;30.75
48035;BME280;33812;46.480;6.834;2024-03-06T08:21:34;93920.78;;;23.55;30.60
48035;BME280;33812;46.480;6.834;2024-03-06T08:25:36;93918.78;;;23.56;30.32
48035;BME280;33812;46.480;6.834;2024-03-06T08:29:38;93920.03;;;23.55;30.57
48035;BME280;33812;46.480;6.834;2024-03-06T08:33:41;93914.47;;;23.55;30.27
48035;BME280;33812;46.480;6.834;2024-03-06T08:37:43;93928.94;;;23.50;30.43
48035;BME280;33812;46.480;6.834;2024-03-06T08:41:45;93924.25;;;23.47;30.44
48035;BME280;33812;46.480;6.834;2024-03-06T08:45:47;93925.63;;;23.42;30.34
48035;BME280;33812;46.480;6.834;2024-03-06T08:49:50;93921.84;;;23.36;30.71
48035;BME280;33812;46.480;6.834;2024-03-06T08:53:52;93935.50;;;23.43;30.46
48035;BME280;33812;46.480;6.834;2024-03-06T08:57:54;93935.50;;;23.43;30.73
48035;BME280;33812;46.480;6.834;2024-03-06T09:01:56;93937.13;;;23.40;30.70
48035;BME280;33812;46.480;6.834;2024-03-06T09:05:59;93936.03;;;23.38;31.46
48035;BME280;33812;46.480;6.834;2024-03-06T09:10:04;93940.91;;;23.47;31.28
48035;BME280;33812;46.480;6.834;2024-03-06T09:14:07;93944.34;;;23.51;31.14
48035;BME280;33812;46.480;6.834;2024-03-06T09:18:09;93947.69;;;23.46;31.44
48035;BME280;33812;46.480;6.834;2024-03-06T09:22:13;93947.34;;;23.43;32.07
48035;BME280;33812;46.480;6.834;2024-03-06T09:26:15;93949.31;;;23.56;31.84
48035;BME280;33812;46.480;6.834;2024-03-06T09:30:16;93946.53;;;23.56;32.31
48035;BME280;33812;46.480;6.834;2024-03-06T09:34:18;93941.44;;;23.54;32.01
48035;BME280;33812;46.480;6.834;2024-03-06T09:38:23;93949.63;;;23.58;31.66
48035;BME280;33812;46.480;6.834;2024-03-06T09:42:25;93945.16;;;23.61;31.79
48035;BME280;33812;46.480;6.834;2024-03-06T09:46:27;93937.38;;;23.69;31.90
48035;BME280;33812;46.480;6.834;2024-03-06T09:50:31;93943.59;;;23.73;31.72
48035;BME280;33812;46.480;6.834;2024-03-06T09:54:40;93945.25;;;23.70;31.61
48035;BME280;33812;46.480;6.834;2024-03-06T09:58:42;93953.44;;;23.74;31.53
48035;BME280;33812;46.480;6.834;2024-03-06T10:02:50;93954.13;;;23.78;31.48
48035;BME280;33812;46.480;6.834;2024-03-06T10:06:53;93946.88;;;23.81;31.41
48035;BME280;33812;46.480;6.834;2024-03-06T10:10:57;93946.09;;;23.80;31.14
48035;BME280;33812;46.480;6.834;2024-03-06T10:15:00;93954.13;;;23.78;31.37
48035;BME280;33812;46.480;6.834;2024-03-06T10:19:15;93943.75;;;23.78;31.34
48035;BME280;33812;46.480;6.834;2024-03-06T10:23:18;93953.84;;;23.85;30.89
48035;BME280;33812;46.480;6.834;2024-03-06T10:27:21;93950.47;;;23.90;30.98
48035;BME280;33812;46.480;6.834;2024-03-06T10:31:27;93951.72;;;23.89;30.91
48035;BME280;33812;46.480;6.834;2024-03-06T10:35:29;93957.13;;;23.93;30.65
48035;BME280;33812;46.480;6.834;2024-03-06T10:39:33;93957.91;;;23.94;30.66
48035;BME280;33812;46.480;6.834;2024-03-06T10:43:42;93956.56;;;23.98;30.75
48035;BME280;33812;46.480;6.834;2024-03-06T10:47:46;93960.25;;;23.95;30.79
48035;BME280;33812;46.480;6.834;2024-03-06T10:51:49;93960.56;;;23.97;30.52
48035;BME280;33812;46.480;6.834;2024-03-06T10:55:53;93964.56;;;23.96;30.76
48035;BME280;33812;46.480;6.834;2024-03-06T10:59:57;93960.56;;;23.97;30.65
48035;BME280;33812;46.480;6.834;2024-03-06T11:04:00;93965.34;;;23.97;30.68
48035;BME280;33812;46.480;6.834;2024-03-06T11:08:04;93961.31;;;23.98;30.33
48035;BME280;33812;46.480;6.834;2024-03-06T11:12:07;93980.13;;;23.94;30.30
48035;BME280;33812;46.480;6.834;2024-03-06T11:16:11;93968.69;;;23.91;30.31
48035;BME280;33812;46.480;6.834;2024-03-06T11:20:16;93967.28;;;23.87;30.46
48035;BME280;33812;46.480;6.834;2024-03-06T11:24:19;93964.94;;;23.85;30.47
48035;BME280;33812;46.480;6.834;2024-03-06T11:28:22;93960.28;;;23.82;30.81
48035;BME280;33812;46.480;6.834;2024-03-06T11:32:25;93956.56;;;23.76;30.88
48035;BME280;33812;46.480;6.834;2024-03-06T11:36:28;93958.09;;;23.77;30.62
48035;BME280;33812;46.480;6.834;2024-03-06T11:40:30;93955.31;;;23.77;30.68
48035;BME280;33812;46.480;6.834;2024-03-06T11:44:32;93943.13;;;23.74;30.34
48035;BME280;33812;46.480;6.834;2024-03-06T11:48:35;93949.19;;;23.82;30.77
48035;BME280;33812;46.480;6.834;2024-03-06T11:52:38;93951.50;;;23.84;30.30
48035;BME280;33812;46.480;6.834;2024-03-06T11:56:40;93944.91;;;23.90;30.52
48035;BME280;33812;46.480;6.834;2024-03-06T12:00:42;93947.91;;;23.96;30.55
48035;BME280;33812;46.480;6.834;2024-03-06T12:04:47;93935.59;;;23.97;30.14
48035;BME280;33812;46.480;6.834;2024-03-06T12:08:49;93940.69;;;23.99;30.25
48035;BME280;33812;46.480;6.834;2024-03-06T12:12:51;93938.19;;;24.01;30.43
48035;BME280;33812;46.480;6.834;2024-03-06T12:16:56;93928.53;;;24.06;30.05
48035;BME280;33812;46.480;6.834;2024-03-06T12:21:01;93934.09;;;24.06;30.34
48035;BME280;33812;46.480;6.834;2024-03-06T12:25:05;93928.78;;;23.98;30.23
48035;BME280;33812;46.480;6.834;2024-03-06T12:29:07;93929.16;;;24.10;30.70
48035;BME280;33812;46.480;6.834;2024-03-06T12:33:09;93925.50;;;24.13;30.94
48035;BME280;33812;46.480;6.834;2024-03-06T12:37:16;93925.50;;;24.13;30.60
48035;BME280;33812;46.480;6.834;2024-03-06T12:41:18;93924.72;;;24.12;31.13
48035;BME280;33812;46.480;6.834;2024-03-06T12:45:20;93924.72;;;24.12;31.06
48035;BME280;33812;46.480;6.834;2024-03-06T12:49:22;93926.09;;;24.08;31.11
48035;BME280;33812;46.480;6.834;2024-03-06T12:53:25;93925.94;;;24.11;30.75
48035;BME280;33812;46.480;6.834;2024-03-06T12:57:27;93914.25;;;24.17;31.02
48035;BME280;33812;46.480;6.834;2024-03-06T13:01:30;93915.38;;;24.19;30.82
48035;BME280;33812;46.480;6.834;2024-03-06T13:05:32;93915.47;;;24.15;30.80
48035;BME280;33812;46.480;6.834;2024-03-06T13:09:35;93914.84;;;24.11;31.10
48035;BME280;33812;46.480;6.834;2024-03-06T13:13:37;93912.69;;;24.15;30.98
48035;BME280;33812;46.480;6.834;2024-03-06T13:17:39;93908.38;;;24.14;30.60
48035;BME280;33812;46.480;6.834;2024-03-06T13:21:41;93902.97;;;24.11;31.11
48035;BME280;33812;46.480;6.834;2024-03-06T13:25:44;93903.09;;;24.07;30.80
48035;BME280;33812;46.480;6.834;2024-03-06T13:29:47;93904.00;;;24.04;31.00
48035;BME280;33812;46.480;6.834;2024-03-06T13:33:48;93899.94;;;23.96;30.99
48035;BME280;33812;46.480;6.834;2024-03-06T13:37:50;93895.63;;;23.95;30.99
48035;BME280;33812;46.480;6.834;2024-03-06T13:41:55;93899.94;;;23.96;31.34
48035;BME280;33812;46.480;6.834;2024-03-06T13:45:58;93899.63;;;23.94;31.45
48035;BME280;33812;46.480;6.834;2024-03-06T13:50:00;93895.63;;;23.95;31.29
48035;BME280;33812;46.480;6.834;2024-03-06T13:54:02;93901.16;;;23.95;30.89
48035;BME280;33812;46.480;6.834;2024-03-06T13:58:05;93900.50;;;23.90;30.88
48035;BME280;33812;46.480;6.834;2024-03-06T14:02:07;93904.19;;;23.87;31.07
48035;BME280;33812;46.480;6.834;2024-03-06T14:06:09;93911.47;;;23.94;31.13
48035;BME280;33812;46.480;6.834;2024-03-06T14:10:11;93908.25;;;23.96;30.44
48035;BME280;33812;46.480;6.834;2024-03-06T14:14:15;93912.47;;;24.00;30.84
48035;BME280;33812;46.480;6.834;2024-03-06T14:18:18;93908.00;;;24.03;30.68
48035;BME280;33812;46.480;6.834;2024-03-06T14:22:20;93907.66;;;24.01;30.45
48035;BME280;33812;46.480;6.834;2024-03-06T14:26:22;93905.47;;;23.96;30.52
48035;BME280;33812;46.480;6.834;2024-03-06T14:30:25;93912.91;;;23.99;30.72
48035;BME280;33812;46.480;6.834;2024-03-06T14:34:27;93915.59;;;24.12;30.19
48035;BME280;33812;46.480;6.834;2024-03-06T14:38:29;93917.44;;;24.06;30.58
48035;BME280;33812;46.480;6.834;2024-03-06T14:42:31;93914.59;;;23.96;30.11
48035;BME280;33812;46.480;6.834;2024-03-06T14:46:34;93918.16;;;23.97;30.22
48035;BME280;33812;46.480;6.834;2024-03-06T14:50:36;93917.81;;;23.95;30.65
48035;BME280;33812;46.480;6.834;2024-03-06T14:54:37;93928.28;;;23.90;30.57
48035;BME280;33812;46.480;6.834;2024-03-06T14:58:40;93919.31;;;23.86;30.48
48035;BME280;33812;46.480;6.834;2024-03-06T15:02:43;93917.59;;;23.79;30.82
48035;BME280;33812;46.480;6.834;2024-03-06T15:06:45;93918.66;;;23.82;30.90
48035;BME280;33812;46.480;6.834;2024-03-06T15:10:47;93915.56;;;23.80;30.80
48035;BME280;33812;46.480;6.834;2024-03-06T15:14:49;93918.47;;;23.76;30.73
48035;BME280;33812;46.480;6.834;2024-03-06T15:18:52;93920.03;;;23.77;31.07
48035;BME280;33812;46.480;6.834;2024-03-06T15:22:56;93911.03;;;23.73;31.03
48035;BME280;33812;46.480;6.834;2024-03-06T15:26:57;93917.72;;;23.76;30.76
48035;BME280;33812;46.480;6.834;2024-03-06T15:30:59;93908.16;;;23.77;30.95
48035;BME280;33812;46.480;6.834;2024-03-06T15:35:05;93915.56;;;23.80;30.82
48035;BME280;33812;46.480;6.834;2024-03-06T15:39:08;93915.13;;;23.82;30.92
48035;BME280;33812;46.480;6.834;2024-03-06T15:43:10;93920.53;;;23.85;30.98
48035;BME280;33812;46.480;6.834;2024-03-06T15:47:12;93917.75;;;23.85;30.89
48035;BME280;33812;46.480;6.834;2024-03-06T15:51:15;93921.19;;;23.89;31.12
48035;BME280;33812;46.480;6.834;2024-03-06T15:55:17;93904.06;;;23.91;30.81
48035;BME280;33812;46.480;6.834;2024-03-06T15:59:18;93916.91;;;23.98;30.50
48035;BME280;33812;46.480;6.834;2024-03-06T16:03:20;93919.56;;;24.01;30.48
48035;BME280;33812;46.480;6.834;2024-03-06T16:07:23;93921.06;;;23.93;30.62
48035;BME280;33812;46.480;6.834;2024-03-06T16:11:26;93914.47;;;24.00;30.66
48035;BME280;33812;46.480;6.834;2024-03-06T16:15:29;93918.97;;;24.07;30.39
48035;BME280;33812;46.480;6.834;2024-03-06T16:19:31;93924.38;;;24.10;30.41
48035;BME280;33812;46.480;6.834;2024-03-06T16:23:34;93916.97;;;24.07;30.53
48035;BME280;33812;46.480;6.834;2024-03-06T16:27:36;93930.06;;;24.07;30.87
48035;BME280;33812;46.480;6.834;2024-03-06T16:31:38;93923.75;;;24.06;30.85
48035;BME280;33812;46.480;6.834;2024-03-06T16:35:39;93925.03;;;24.14;30.91
48035;BME280;33812;46.480;6.834;2024-03-06T16:39:42;93918.91;;;24.20;30.54
48035;BME280;33812;46.480;6.834;2024-03-06T16:43:46;93908.13;;;24.22;30.13
48035;BME280;33812;46.480;6.834;2024-03-06T16:47:48;93910.91;;;24.22;31.14
48035;BME280;33812;46.480;6.834;2024-03-06T16:51:52;93919.38;;;24.18;31.39
48035;BME280;33812;46.480;6.834;2024-03-06T16:55:55;93913.81;;;24.18;31.85
48035;BME280;33812;46.480;6.834;2024-03-06T16:59:57;93925.69;;;24.19;31.94
48035;BME280;33812;46.480;6.834;2024-03-06T17:04:00;93915.00;;;24.17;31.54
48035;BME280;33812;46.480;6.834;2024-03-06T17:08:02;93913.28;;;24.10;32.88
48035;BME280;33812;46.480;6.834;2024-03-06T17:12:05;93919.63;;;24.11;34.25
48035;BME280;33812;46.480;6.834;2024-03-06T17:16:09;93915.72;;;24.08;32.52
48035;BME280;33812;46.480;6.834;2024-03-06T17:20:11;93915.72;;;24.08;33.82
48035;BME280;33812;46.480;6.834;2024-03-06T17:24:16;93911.09;;;24.05;33.91
48035;BME280;33812;46.480;6.834;2024-03-06T17:28:19;93912.94;;;24.08;33.47
48035;BME280;33812;46.480;6.834;2024-03-06T17:32:21;93910.97;;;24.09;33.68
48035;BME280;33812;46.480;6.834;2024-03-06T17:36:24;93915.72;;;24.08;34.53
48035;BME280;33812;46.480;6.834;2024-03-06T17:40:26;93923.19;;;24.11;33.77
48035;BME280;33812;46.480;6.834;2024-03-06T17:44:29;93917.63;;;24.11;33.83
48035;BME280;33812;46.480;6.834;2024-03-06T17:48:30;93917.75;;;24.08;34.20
48035;BME280;33812;46.480;6.834;2024-03-06T17:52:32;93926.84;;;24.08;34.26
48035;BME280;33812;46.480;6.834;2024-03-06T17:56:34;93925.44;;;24.03;33.94
48035;BME280;33812;46.480;6.834;2024-03-06T18:00:37;93927.09;;;24.01;33.96
48035;BME280;33812;46.480;6.834;2024-03-06T18:04:39;93926.47;;;23.97;34.09
48035;BME280;33812;46.480;6.834;2024-03-06T18:08:41;93930.47;;;23.96;34.64
48035;BME280;33812;46.480;6.834;2024-03-06T18:12:45;93928.47;;;23.96;34.36
48035;BME280;33812;46.480;6.834;2024-03-06T18:16:48;93930.63;;;23.92;34.06
48035;BME280;33812;46.480;6.834;2024-03-06T18:20:50;93927.06;;;23.91;34.46
48035;BME280;33812;46.480;6.834;2024-03-06T18:24:51;93936.28;;;23.88;34.21
48035;BME280;33812;46.480;6.834;2024-03-06T18:28:54;93931.97;;;20.43;28.29
48035;BME280;33812;46.480;6.834;2024-03-06T18:32:58;93927.94;;;22.17;29.05
48035;BME280;33812;46.480;6.834;2024-03-06T18:36:59;93932.06;;;23.26;28.35
48035;BME280;33812;46.480;6.834;2024-03-06T18:41:03;93934.97;;;23.58;28.71
48035;BME280;33812;46.480;6.834;2024-03-06T18:45:06;93936.34;;;23.75;27.66
48035;BME280;33812;46.480;6.834;2024-03-06T18:49:10;93937.34;;;23.82;28.95
48035;BME280;33812;46.480;6.834;2024-03-06T18:53:13;93930.09;;;23.84;28.96
48035;BME280;33812;46.480;6.834;2024-03-06T18:57:15;93924.53;;;23.84;29.40
48035;BME280;33812;46.480;6.834;2024-03-06T19:01:17;93920.53;;;23.85;29.38
48035;BME280;33812;46.480;6.834;2024-03-06T19:05:21;93919.19;;;23.90;30.68
48035;BME280;33812;46.480;6.834;2024-03-06T19:09:22;93919.94;;;23.90;31.80
48035;BME280;33812;46.480;6.834;2024-03-06T19:13:24;93919.69;;;23.98;31.51
48035;BME280;33812;46.480;6.834;2024-03-06T19:17:26;93924.78;;;23.99;31.75
48035;BME280;33812;46.480;6.834;2024-03-06T19:21:29;93916.91;;;23.98;31.98
48035;BME280;33812;46.480;6.834;2024-03-06T19:25:32;93911.69;;;24.00;31.86
48035;BME280;33812;46.480;6.834;2024-03-06T19:29:34;93914.59;;;23.96;32.41
48035;BME280;33812;46.480;6.834;2024-03-06T19:33:36;93913.97;;;23.92;32.12
48035;BME280;33812;46.480;6.834;2024-03-06T19:37:39;93910.84;;;23.90;32.32
48035;BME280;33812;46.480;6.834;2024-03-06T19:41:41;93909.94;;;23.93;32.35
48035;BME280;33812;46.480;6.834;2024-03-06T19:45:42;93898.66;;;23.87;31.60
48035;BME280;33812;46.480;6.834;2024-03-06T19:49:44;93906.34;;;23.83;31.97
48035;BME280;33812;46.480;6.834;2024-03-06T19:53:47;93903.84;;;23.76;31.40
48035;BME280;33812;46.480;6.834;2024-03-06T19:57:50;93897.50;;;23.75;34.52
48035;BME280;33812;46.480;6.834;2024-03-06T20:01:51;93901.50;;;23.74;34.17
48035;BME280;33812;46.480;6.834;2024-03-06T20:05:56;93899.00;;;23.67;34.60
48035;BME280;33812;46.480;6.834;2024-03-06T20:09:59;93896.16;;;23.58;34.91
48035;BME280;33812;46.480;6.834;2024-03-06T20:14:01;93893.16;;;23.52;34.74
48035;BME280;33812;46.480;6.834;2024-03-06T20:18:05;93899.63;;;23.49;35.18
48035;BME280;33812;46.480;6.834;2024-03-06T20:22:07;93896.53;;;23.47;35.90
48035;BME280;33812;46.480;6.834;2024-03-06T20:26:10;93903.06;;;23.53;35.85
48035;BME280;33812;46.480;6.834;2024-03-06T20:30:12;93907.38;;;23.54;35.41
48035;BME280;33812;46.480;6.834;2024-03-06T20:34:15;93907.25;;;23.58;35.76
48035;BME280;33812;46.480;6.834;2024-03-06T20:38:17;93902.47;;;23.58;35.72
48035;BME280;33812;46.480;6.834;2024-03-06T20:42:22;93901.56;;;23.61;35.61
48035;BME280;33812;46.480;6.834;2024-03-06T20:46:24;93905.44;;;23.64;35.73
48035;BME280;33812;46.480;6.834;2024-03-06T20:50:25;93898.66;;;23.65;35.37
48035;BME280;33812;46.480;6.834;2024-03-06T20:54:27;93899.91;;;23.64;35.58
48035;BME280;33812;46.480;6.834;2024-03-06T20:58:31;93889.31;;;23.72;35.18
48035;BME280;33812;46.480;6.834;2024-03-06T21:02:32;93896.72;;;23.75;34.79
48035;BME280;33812;46.480;6.834;2024-03-06T21:06:34;93889.06;;;23.79;34.91
48035;BME280;33812;46.480;6.834;2024-03-06T21:10:37;93888.25;;;23.78;34.76
48035;BME280;33812;46.480;6.834;2024-03-06T21:14:40;93873.19;;;23.79;34.73
48035;BME280;33812;46.480;6.834;2024-03-06T21:18:42;93882.00;;;23.87;34.16
48035;BME280;33812;46.480;6.834;2024-03-06T21:22:44;93877.34;;;23.84;34.53